KBGD/BGD METAR and TAF weather

Enter ICAO airport designator
Station Type Date Time Source
KBGD METAR 2022/10/01 08:51 UTC NOAA

KBGD 010851Z AUTO 14015KT 10SM CLR 19/07 A3004 RMK AO2 SLP128 T01940067 52002


Station Type Date Time Source
KBGD Decoded METAR 2022/10/01 08:51 UTC NOAA

BORGER HUTCHINSON CO AIRPORT , TX, United States (KBGD) 35-42N 101-24W 927M
Oct 01, 2022 - 04:51 AM EDT / 2022.10.01 0851 UTC
Wind: from the SE (140 degrees) at 17 MPH (15 KT):0
Visibility: 10 mile(s):0
Sky conditions: clear
Temperature: 66.9 F (19.4 C)
Dew Point: 44.1 F (6.7 C)
Relative Humidity: 43%
Pressure (altimeter): 30.04 in. Hg (1017 hPa)
Pressure tendency: 0.01 inches (0.2 hPa) higher than three hours ago
ob: KBGD 010851Z AUTO 14015KT 10SM CLR 19/07 A3004 RMK AO2 SLP128 T01940067 52002
cycle: 9

Station Type Date Time Source
KBGD TAF UTC NOAA

Error!

Example: see airport list